Carol M. Ott — WCY7224 — position and weather

sailwx.info

Track history (hours):
 
Tides and Currents Weather Stations Pressure Air Temp Water Temp Dewpoint Dewpoint Depression Visibility Wind Speed Wind Dir Waves Ship Positions

Carol M. Ott

Owner: BLESSEY MARINE SERVICES INC, HARAHAN, LA. More information available from US FCC via Universal Licensing System and Coast Guard Vessel Documentation Center.

Last reported at 2018-Jun-18 23:25 UTC. Time now 2018-Jun-19 02:59 UTC.
Position N 29°25' W 094°43'.

Length 23 m; draft 2.4 m.

Type: Towing. MMSI: 366934050.

Date/timePositionNaut miles runAvg speedWind from/ knotsBaromVisibWave heightAir tempDewpointWater temp
2018-Jun-18 23:25N 29°25' W 094°43'2 4.5
2018-Jun-18 23:00N 29°24' W 094°45'2 4.3
2018-Jun-18 22:30N 29°23' W 094°47'2 3.5
2018-Jun-18 22:00N 29°23' W 094°49'10 5.7
2018-Jun-18 20:11N 29°32' W 094°54'5 5.5
2018-Jun-18 19:12N 29°37' W 094°57'1 5.8
2018-Jun-18 18:59N 29°38' W 094°58'3 5.6
2018-Jun-18 18:29N 29°41' W 094°59'  
2018-Jun-16 01:17N 29°36' W 094°24'2 5.4
2018-Jun-16 00:59N 29°36' W 094°23'2 5.0
2018-Jun-16 00:30N 29°37' W 094°20'3 5.7
2018-Jun-16 00:00N 29°38' W 094°17'3 5.8
2018-Jun-15 23:30N 29°40' W 094°14'3 5.8
2018-Jun-15 23:00N 29°41' W 094°11'3 5.3
2018-Jun-15 22:30N 29°42' W 094°09'1 1.4
2018-Jun-15 22:00N 29°43' W 094°08'3 5.8
2018-Jun-15 21:30N 29°44' W 094°05'3 5.9
2018-Jun-15 21:00N 29°46' W 094°03'3 5.9
2018-Jun-15 20:30N 29°48' W 094°00'3 5.2
2018-Jun-15 20:00N 29°49' W 093°58'3 5.9
2018-Jun-15 19:30N 29°52' W 093°56'3 5.7
2018-Jun-15 19:00N 29°54' W 093°54'3 5.7
2018-Jun-15 18:30N 29°56' W 093°52'3 5.4
2018-Jun-15 18:00N 29°59' W 093°50'3 5.9
2018-Jun-15 17:30N 29°60' W 093°47'2 4.9
2018-Jun-15 17:00N 30°01' W 093°45'3 5.2
2018-Jun-15 16:29N 30°03' W 093°43'2 5.2
2018-Jun-15 16:00N 30°04' W 093°40'3 5.2
2018-Jun-15 15:28N 30°04' W 093°36'3 5.5
2018-Jun-15 14:59N 30°04' W 093°33'3 5.4
2018-Jun-15 14:30N 30°04' W 093°30'3 5.4
2018-Jun-15 13:59N 30°04' W 093°27'3 5.5
2018-Jun-15 13:30N 30°04' W 093°24'2 4.9
2018-Jun-15 13:00N 30°04' W 093°21'2 4.4
2018-Jun-15 12:30N 30°05' W 093°20'2 4.0
2018-Jun-15 12:00N 30°07' W 093°20'2 4.7
2018-Jun-15 11:30N 30°10' W 093°19'0 0.3
2018-Jun-15 11:00N 30°10' W 093°19'0 0.0
2018-Jun-15 10:30N 30°10' W 093°19'0 0.0
2018-Jun-15 09:59N 30°10' W 093°19'0 0.0
2018-Jun-15 09:30N 30°10' W 093°19'0 0.0
2018-Jun-15 09:00N 30°10' W 093°19'0 0.0
2018-Jun-15 08:30N 30°10' W 093°19'0 0.0
2018-Jun-15 08:00N 30°10' W 093°19'0 0.0
2018-Jun-15 07:30N 30°10' W 093°19'0 0.0
2018-Jun-15 06:59N 30°10' W 093°19'0 0.0
2018-Jun-15 06:30N 30°10' W 093°19'0 0.0
2018-Jun-15 06:00N 30°10' W 093°19'0 0.0
2018-Jun-15 05:30N 30°10' W 093°19'0 0.0
2018-Jun-15 05:00N 30°10' W 093°19'0 0.0
2018-Jun-15 04:30N 30°10' W 093°19'0 0.0
2018-Jun-15 04:00N 30°10' W 093°19'0 0.0
2018-Jun-15 03:30N 30°10' W 093°19'0 0.0
2018-Jun-15 03:00N 30°10' W 093°19'0 0.0
2018-Jun-15 02:30N 30°10' W 093°19'0 0.0
2018-Jun-15 02:00N 30°10' W 093°19'0 0.0
2018-Jun-15 01:30N 30°10' W 093°19'0 0.0
2018-Jun-15 01:00N 30°10' W 093°19'0 0.0
2018-Jun-15 00:30N 30°10' W 093°19'0 0.0
2018-Jun-15 00:00N 30°10' W 093°19'0 0.0
2018-Jun-14 23:30N 30°10' W 093°19'0 0.0
2018-Jun-14 22:58N 30°10' W 093°19'0 0.0
2018-Jun-14 22:30N 30°10' W 093°19'0 0.0
2018-Jun-14 22:00N 30°10' W 093°19'0 0.0
2018-Jun-14 21:30N 30°10' W 093°19'0 0.0
2018-Jun-14 21:00N 30°10' W 093°19'0 0.0
2018-Jun-14 20:30N 30°10' W 093°19'0 0.0
2018-Jun-14 20:00N 30°10' W 093°19'0 0.0
2018-Jun-14 19:30N 30°10' W 093°19'0 0.0
2018-Jun-14 19:00N 30°10' W 093°19'0 0.1
2018-Jun-14 18:30N 30°10' W 093°19'2 3.3
2018-Jun-14 18:00N 30°11' W 093°19'2 4.6
2018-Jun-14 17:30N 30°12' W 093°16'1 1.8
2018-Jun-14 17:00N 30°13' W 093°16'0 0.1
2018-Jun-14 16:30N 30°13' W 093°16'0 0.0
2018-Jun-14 16:00N 30°13' W 093°16'0 0.0
2018-Jun-14 15:30N 30°13' W 093°16'0 0.0
2018-Jun-14 15:00N 30°13' W 093°16'0 0.0
2018-Jun-14 14:30N 30°13' W 093°16'0 0.0
2018-Jun-14 14:00N 30°13' W 093°16'0 0.4
2018-Jun-14 13:30N 30°13' W 093°16'0 0.4
2018-Jun-14 13:00N 30°13' W 093°16'0 0.0
2018-Jun-14 12:30N 30°13' W 093°16'0 0.0
2018-Jun-14 12:00N 30°13' W 093°16'0 0.0
2018-Jun-14 11:30N 30°13' W 093°16'0 0.0
2018-Jun-14 11:00N 30°13' W 093°16'0 0.0
2018-Jun-14 10:30N 30°13' W 093°16'0 0.0
2018-Jun-14 10:00N 30°13' W 093°16'0 0.0
2018-Jun-14 09:30N 30°13' W 093°16'0 0.0
2018-Jun-14 09:00N 30°13' W 093°16'0 0.0
2018-Jun-14 08:30N 30°13' W 093°16'0 0.0
2018-Jun-14 08:00N 30°13' W 093°16'0 0.0
2018-Jun-14 07:30N 30°13' W 093°16'0 0.0
2018-Jun-14 06:53N 30°13' W 093°16'0 0.0
2018-Jun-14 06:23N 30°13' W 093°16'0 0.0
2018-Jun-14 05:58N 30°13' W 093°16'0 0.0
2018-Jun-14 05:30N 30°13' W 093°16'0 0.0
2018-Jun-14 04:59N 30°13' W 093°16'0 0.0
2018-Jun-14 04:29N 30°13' W 093°16'0 0.0
2018-Jun-14 04:00N 30°13' W 093°16'0 0.0
2018-Jun-14 03:27N 30°13' W 093°16'0 0.0
2018-Jun-14 03:00N 30°13' W 093°16'0 0.0
2018-Jun-14 02:17N 30°13' W 093°16'0 0.0
2018-Jun-14 01:47N 30°13' W 093°16'0 0.0
2018-Jun-14 01:26N 30°13' W 093°16'0 0.0
2018-Jun-14 00:57N 30°13' W 093°16'0 0.0
2018-Jun-14 00:29N 30°13' W 093°16'0 0.0
2018-Jun-14 00:00N 30°13' W 093°16'0 0.0
2018-Jun-13 23:30N 30°13' W 093°16'0 0.0
2018-Jun-13 23:00N 30°13' W 093°16'0 0.0
2018-Jun-13 22:30N 30°13' W 093°16'0 0.0
2018-Jun-13 22:00N 30°13' W 093°16'0 0.0
2018-Jun-13 21:30N 30°13' W 093°16'0 0.0
2018-Jun-13 21:00N 30°13' W 093°16'0 0.0
2018-Jun-13 20:29N 30°13' W 093°16'0 0.0
2018-Jun-13 20:00N 30°13' W 093°16'0 0.0
2018-Jun-13 19:29N 30°13' W 093°16'0 0.0
2018-Jun-13 19:00N 30°13' W 093°16'0 0.0
2018-Jun-13 18:30N 30°13' W 093°16'0 0.0
2018-Jun-13 17:59N 30°13' W 093°16'0 0.0
2018-Jun-13 17:30N 30°13' W 093°16'0 0.0
2018-Jun-13 17:00N 30°13' W 093°16'0 0.0
2018-Jun-13 16:29N 30°13' W 093°16'0 0.0
2018-Jun-13 16:00N 30°13' W 093°16'0 0.0
2018-Jun-13 15:30N 30°13' W 093°16'0 0.0
2018-Jun-13 15:00N 30°13' W 093°16'0 0.0
2018-Jun-13 14:30N 30°13' W 093°16'0 0.0
2018-Jun-13 14:00N 30°13' W 093°16'0 0.0
2018-Jun-13 13:30N 30°13' W 093°16'0 0.0
2018-Jun-13 13:00N 30°13' W 093°16'0 0.0
2018-Jun-13 12:30N 30°13' W 093°16'0 0.0
2018-Jun-13 12:00N 30°13' W 093°16'0 0.0
2018-Jun-13 11:30N 30°13' W 093°16'0 0.0
2018-Jun-13 11:00N 30°13' W 093°16'0 0.0
2018-Jun-13 10:30N 30°13' W 093°16'0 0.0
2018-Jun-13 10:00N 30°13' W 093°16'0 0.0
2018-Jun-13 09:30N 30°13' W 093°16'0 0.0
2018-Jun-13 09:00N 30°13' W 093°16'0 0.0
2018-Jun-13 08:30N 30°13' W 093°16'0 0.0
2018-Jun-13 08:00N 30°13' W 093°16'0 0.0
2018-Jun-13 07:30N 30°13' W 093°16'0 0.0
2018-Jun-13 07:00N 30°13' W 093°16'0 0.0
2018-Jun-13 06:30N 30°13' W 093°16'0 0.0
2018-Jun-13 06:00N 30°13' W 093°16'0 0.0
2018-Jun-13 05:30N 30°13' W 093°16'0 0.0
2018-Jun-13 05:00N 30°13' W 093°16'0 0.0
2018-Jun-13 04:30N 30°13' W 093°16'0 0.0
2018-Jun-13 04:00N 30°13' W 093°16'0 0.0
2018-Jun-13 03:30N 30°13' W 093°16'0 0.0
2018-Jun-13 03:00N 30°13' W 093°16'0 0.0
2018-Jun-13 02:30N 30°13' W 093°16'0 0.0
2018-Jun-13 02:00N 30°13' W 093°16'0 0.0
2018-Jun-13 01:30N 30°13' W 093°16'0 0.0
2018-Jun-13 01:00N 30°13' W 093°16'0 0.0
2018-Jun-13 00:30N 30°13' W 093°16'0 0.0
2018-Jun-13 00:00N 30°13' W 093°16'0 0.0
2018-Jun-12 23:30N 30°13' W 093°16'0 0.0
2018-Jun-12 23:00N 30°13' W 093°16'0 0.0
2018-Jun-12 22:30N 30°13' W 093°16'0 0.0
2018-Jun-12 22:00N 30°13' W 093°16'0 0.0
2018-Jun-12 21:30N 30°13' W 093°16'0 0.0
2018-Jun-12 21:00N 30°13' W 093°16'0 0.0
2018-Jun-12 20:30N 30°13' W 093°16'0 0.0
2018-Jun-12 20:00N 30°13' W 093°16'0 0.0
2018-Jun-12 19:30N 30°13' W 093°16'0 0.0
2018-Jun-12 19:00N 30°13' W 093°16'0 0.0
2018-Jun-12 18:30N 30°13' W 093°16'0 0.0
2018-Jun-12 18:00N 30°13' W 093°16'0 0.0
2018-Jun-12 17:30N 30°13' W 093°16'0 0.0
2018-Jun-12 17:00N 30°13' W 093°16'0 0.0
2018-Jun-12 16:30N 30°13' W 093°16'0 0.0
2018-Jun-12 16:00N 30°13' W 093°16'0 0.0
2018-Jun-12 15:30N 30°13' W 093°16'0 0.0
2018-Jun-12 15:00N 30°13' W 093°16'0 0.0
2018-Jun-12 14:30N 30°13' W 093°16'0 0.0
2018-Jun-12 14:00N 30°13' W 093°16'0 0.0
2018-Jun-12 13:30N 30°13' W 093°16'0 0.0
2018-Jun-12 13:00N 30°13' W 093°16'0 0.0
2018-Jun-12 12:30N 30°13' W 093°16'0 0.0
2018-Jun-12 12:00N 30°13' W 093°16'0 0.0
2018-Jun-12 11:30N 30°13' W 093°16'0 0.0
2018-Jun-12 11:00N 30°13' W 093°16'0 0.0
2018-Jun-12 10:30N 30°13' W 093°16'0 0.0
2018-Jun-12 09:59N 30°13' W 093°16'0 0.0
2018-Jun-12 09:30N 30°13' W 093°16'0 0.0
2018-Jun-12 09:00N 30°13' W 093°16'0 0.0
2018-Jun-12 08:30N 30°13' W 093°16'0 0.0
2018-Jun-12 08:00N 30°13' W 093°16'0 0.0
2018-Jun-12 07:30N 30°13' W 093°16'0 0.0
2018-Jun-12 07:00N 30°13' W 093°16'0 0.0
2018-Jun-12 06:30N 30°13' W 093°16'0 0.0
2018-Jun-12 06:00N 30°13' W 093°16'0 0.0
2018-Jun-12 05:30N 30°13' W 093°16'0 0.0
2018-Jun-12 05:00N 30°13' W 093°16'0 0.0
2018-Jun-12 04:30N 30°13' W 093°16'0 0.0
2018-Jun-12 04:00N 30°13' W 093°16'0 0.0
2018-Jun-12 03:30N 30°13' W 093°16'0 0.0
2018-Jun-12 03:00N 30°13' W 093°16'0 0.0
2018-Jun-12 02:30N 30°13' W 093°16'0 0.0
2018-Jun-12 02:00N 30°13' W 093°16'0 0.0
2018-Jun-12 01:30N 30°13' W 093°16'0 0.0
2018-Jun-12 01:00N 30°13' W 093°16'0 0.0
2018-Jun-12 00:30N 30°13' W 093°16'0 0.0
2018-Jun-12 00:00N 30°13' W 093°16'0 0.0
2018-Jun-11 23:30N 30°13' W 093°16'0 0.2
2018-Jun-11 23:00N 30°13' W 093°16'0 0.2
2018-Jun-11 22:29N 30°13' W 093°16'0 0.0
2018-Jun-11 22:00N 30°13' W 093°16'0 0.0
2018-Jun-11 21:30N 30°13' W 093°16'0 0.0
2018-Jun-11 21:00N 30°13' W 093°16'0 0.0
2018-Jun-11 20:30N 30°13' W 093°16'0 0.0
2018-Jun-11 20:00N 30°13' W 093°16'0 0.0
2018-Jun-11 19:30N 30°13' W 093°16'0 0.0
2018-Jun-11 19:00N 30°13' W 093°16'0 0.0
2018-Jun-11 18:30N 30°13' W 093°16'0 0.0
2018-Jun-11 18:00N 30°13' W 093°16'1 1.5
2018-Jun-11 17:30N 30°13' W 093°16'3 6.8
2018-Jun-11 17:00N 30°11' W 093°19'3 6.6
2018-Jun-11 16:30N 30°07' W 093°20'2 3.5
2018-Jun-11 16:00N 30°06' W 093°18'0 0.0
2018-Jun-11 15:30N 30°06' W 093°18'0 0.2
2018-Jun-11 15:00N 30°06' W 093°18'2 3.3
2018-Jun-11 14:30N 30°07' W 093°20'3 6.1
2018-Jun-11 14:00N 30°10' W 093°19'3 5.9
2018-Jun-11 13:30N 30°12' W 093°17'1 2.6
2018-Jun-11 13:00N 30°13' W 093°16'0 0.0
2018-Jun-11 12:30N 30°13' W 093°16'0 0.0
2018-Jun-11 12:00N 30°13' W 093°16'0 0.0
2018-Jun-11 11:30N 30°13' W 093°16'0 0.0
2018-Jun-11 11:00N 30°13' W 093°16'0 0.0
2018-Jun-11 10:30N 30°13' W 093°16'0 0.0
2018-Jun-11 10:00N 30°13' W 093°16'0 0.0
2018-Jun-11 09:30N 30°13' W 093°16'0 0.0
2018-Jun-11 09:00N 30°13' W 093°16'0 0.0
2018-Jun-11 08:30N 30°13' W 093°16'0 0.0
2018-Jun-11 08:00N 30°13' W 093°16'0 0.0
2018-Jun-11 07:30N 30°13' W 093°16'0 0.0
2018-Jun-11 07:00N 30°13' W 093°16'0 0.0
2018-Jun-11 06:30N 30°13' W 093°16'0 0.0
2018-Jun-11 06:00N 30°13' W 093°16'0 0.0
2018-Jun-11 05:30N 30°13' W 093°16'0 0.0
2018-Jun-11 05:00N 30°13' W 093°16'0 0.0
2018-Jun-11 04:30N 30°13' W 093°16'0 0.0
2018-Jun-11 04:00N 30°13' W 093°16'0 0.0
2018-Jun-11 03:30N 30°13' W 093°16'0 0.0
2018-Jun-11 03:00N 30°13' W 093°16'0 0.0
2018-Jun-11 02:30N 30°13' W 093°16'0 0.0
2018-Jun-11 01:59N 30°13' W 093°16'0 0.0
2018-Jun-11 01:30N 30°13' W 093°16'0 0.0
2018-Jun-11 01:00N 30°13' W 093°16'0 0.0
2018-Jun-11 00:30N 30°13' W 093°16'0 0.0
2018-Jun-11 00:00N 30°13' W 093°16'0 0.0
2018-Jun-10 23:30N 30°13' W 093°16'0 0.0
2018-Jun-10 23:00N 30°13' W 093°16'0 0.0
2018-Jun-10 22:30N 30°13' W 093°16'0 0.0
2018-Jun-10 22:00N 30°13' W 093°16'0 0.0
2018-Jun-10 21:30N 30°13' W 093°16'0 0.0
2018-Jun-10 21:00N 30°13' W 093°16'0 0.0
2018-Jun-10 20:30N 30°13' W 093°16'0 0.0
2018-Jun-10 20:00N 30°13' W 093°16'0 0.0
2018-Jun-10 19:28N 30°13' W 093°16'0 0.0
2018-Jun-10 18:59N 30°13' W 093°16'0 0.0
2018-Jun-10 18:30N 30°13' W 093°16'0 0.0
2018-Jun-10 18:00N 30°13' W 093°16'0 0.0
2018-Jun-10 17:30N 30°13' W 093°16'0 0.0
2018-Jun-10 17:00N 30°13' W 093°16'0 0.0
2018-Jun-10 16:30N 30°13' W 093°16'0 0.0
2018-Jun-10 16:00N 30°13' W 093°16'0 0.0
2018-Jun-10 15:30N 30°13' W 093°16'0 0.0
2018-Jun-10 15:00N 30°13' W 093°16'0 0.0
2018-Jun-10 14:00N 30°13' W 093°16'0 0.0
2018-Jun-10 13:30N 30°13' W 093°16'0 0.0
2018-Jun-10 13:00N 30°13' W 093°16'0 0.0
2018-Jun-10 12:30N 30°13' W 093°16'0 0.0
2018-Jun-10 12:00N 30°13' W 093°16'0 0.0
2018-Jun-10 11:30N 30°13' W 093°16'0 0.0
2018-Jun-10 11:00N 30°13' W 093°16'0 0.0
2018-Jun-10 10:29N 30°13' W 093°16'0 0.0
2018-Jun-10 10:00N 30°13' W 093°16'0 0.0
2018-Jun-10 09:30N 30°13' W 093°16'0 0.0
2018-Jun-10 09:00N 30°13' W 093°16'0 0.0
2018-Jun-10 08:30N 30°13' W 093°16'0 0.0
2018-Jun-10 08:00N 30°13' W 093°16'0 0.0
2018-Jun-10 07:30N 30°13' W 093°16'0 0.0
2018-Jun-10 06:59N 30°13' W 093°16'0 0.0
2018-Jun-10 06:29N 30°13' W 093°16'0 0.0
2018-Jun-10 05:59N 30°13' W 093°16'0 0.0
2018-Jun-10 05:29N 30°13' W 093°16'0 0.0
2018-Jun-10 04:58N 30°13' W 093°16'0 0.0
2018-Jun-10 04:20N 30°13' W 093°16'0 0.0
2018-Jun-10 04:00N 30°13' W 093°16'0 0.0
2018-Jun-10 03:30N 30°13' W 093°16'0 0.0
2018-Jun-10 03:00N 30°13' W 093°16'0 0.0
2018-Jun-10 02:29N 30°13' W 093°16'0 0.0
2018-Jun-10 01:54N 30°13' W 093°16'0 0.0
2018-Jun-10 01:30N 30°13' W 093°16'0 0.0
2018-Jun-10 00:59N 30°13' W 093°16'0 0.0
2018-Jun-10 00:30N 30°13' W 093°16'0 0.0
2018-Jun-10 00:00N 30°13' W 093°16'0 0.0
2018-Jun-09 23:30N 30°13' W 093°16'0 0.0
2018-Jun-09 23:00N 30°13' W 093°16'0 0.0
2018-Jun-09 22:30N 30°13' W 093°16'0 0.0
2018-Jun-09 22:00N 30°13' W 093°16'0 0.0
2018-Jun-09 21:30N 30°13' W 093°16'0 0.0
2018-Jun-09 21:00N 30°13' W 093°16'0 0.0
2018-Jun-09 20:30N 30°13' W 093°16'0 0.0
2018-Jun-09 20:00N 30°13' W 093°16'0 0.0
2018-Jun-09 19:30N 30°13' W 093°16'0 0.0
2018-Jun-09 19:00N 30°13' W 093°16'0 0.0
2018-Jun-09 18:30N 30°13' W 093°16'0 0.0
2018-Jun-09 18:00N 30°13' W 093°16'0 0.0
2018-Jun-09 17:30N 30°13' W 093°16'0 0.0
2018-Jun-09 17:00N 30°13' W 093°16'0 0.0
2018-Jun-09 16:29N 30°13' W 093°16'0 0.0
2018-Jun-09 16:00N 30°13' W 093°16'0 0.0
2018-Jun-09 15:00N 30°13' W 093°16'0 0.0
2018-Jun-09 14:28N 30°13' W 093°16'0 0.0
2018-Jun-09 13:59N 30°13' W 093°16'0 0.0
2018-Jun-09 13:28N 30°13' W 093°16'0 0.0
2018-Jun-09 12:59N 30°13' W 093°16'0 0.0
2018-Jun-09 12:29N 30°13' W 093°16'0 0.0
2018-Jun-09 12:00N 30°13' W 093°16'0 0.0
2018-Jun-09 11:30N 30°13' W 093°16'0 0.0
2018-Jun-09 11:00N 30°13' W 093°16'0 0.0
2018-Jun-09 10:30N 30°13' W 093°16'0 0.0
2018-Jun-09 10:00N 30°13' W 093°16'0 0.0
2018-Jun-09 09:30N 30°13' W 093°16'0 0.0
2018-Jun-09 09:00N 30°13' W 093°16'0 0.0
2018-Jun-09 08:28N 30°13' W 093°16'0 0.0
2018-Jun-09 08:00N 30°13' W 093°16'0 0.0
2018-Jun-09 07:30N 30°13' W 093°16'0 0.0
2018-Jun-09 07:00N 30°13' W 093°16'0 0.0
2018-Jun-09 06:30N 30°13' W 093°16'0 0.0
2018-Jun-09 06:00N 30°13' W 093°16'0 0.0
2018-Jun-09 05:30N 30°13' W 093°16'0 0.0
2018-Jun-09 05:00N 30°13' W 093°16'0 0.0
2018-Jun-09 04:30N 30°13' W 093°16'0 0.0
2018-Jun-09 04:00N 30°13' W 093°16'0 0.0
2018-Jun-09 03:30N 30°13' W 093°16'0 0.5
2018-Jun-09 03:00N 30°13' W 093°16'0 0.6
2018-Jun-09 02:30N 30°13' W 093°16'2 3.8
2018-Jun-09 02:00N 30°12' W 093°17'0 0.0
2018-Jun-09 01:30N 30°12' W 093°17'0 0.3
2018-Jun-09 01:00N 30°12' W 093°17'2 3.8
2018-Jun-09 00:30N 30°10' W 093°19'2 5.0
2018-Jun-09 00:00N 30°08' W 093°20'2 4.6
2018-Jun-08 23:30N 30°06' W 093°19'  
Track history (hours):
 
Tides and Currents Weather Stations Pressure Air Temp Water Temp Dewpoint Dewpoint Depression Visibility Wind Speed Wind Dir Waves Ship Positions

Carol M. Ott

Owner: BLESSEY MARINE SERVICES INC, HARAHAN, LA. More information available from US FCC via Universal Licensing System and Coast Guard Vessel Documentation Center.

Last reported at 2018-Jun-18 23:25 UTC. Time now 2018-Jun-19 02:59 UTC.
Position N 29°25' W 094°43'.

Length 23 m; draft 2.4 m.

Type: Towing. MMSI: 366934050.

Date/timePositionNaut miles runAvg speedWind from/ knotsBaromVisibWave heightAir tempDewpointWater temp
2018-Jun-18 23:25N 29°25' W 094°43'2 4.5
2018-Jun-18 23:00N 29°24' W 094°45'2 4.3
2018-Jun-18 22:30N 29°23' W 094°47'2 3.5
2018-Jun-18 22:00N 29°23' W 094°49'10 5.7
2018-Jun-18 20:11N 29°32' W 094°54'5 5.5
2018-Jun-18 19:12N 29°37' W 094°57'1 5.8
2018-Jun-18 18:59N 29°38' W 094°58'3 5.6
2018-Jun-18 18:29N 29°41' W 094°59'  
2018-Jun-16 01:17N 29°36' W 094°24'2 5.4
2018-Jun-16 00:59N 29°36' W 094°23'2 5.0
2018-Jun-16 00:30N 29°37' W 094°20'3 5.7
2018-Jun-16 00:00N 29°38' W 094°17'3 5.8
2018-Jun-15 23:30N 29°40' W 094°14'3 5.8
2018-Jun-15 23:00N 29°41' W 094°11'3 5.3
2018-Jun-15 22:30N 29°42' W 094°09'1 1.4
2018-Jun-15 22:00N 29°43' W 094°08'3 5.8
2018-Jun-15 21:30N 29°44' W 094°05'3 5.9
2018-Jun-15 21:00N 29°46' W 094°03'3 5.9
2018-Jun-15 20:30N 29°48' W 094°00'3 5.2
2018-Jun-15 20:00N 29°49' W 093°58'3 5.9
2018-Jun-15 19:30N 29°52' W 093°56'3 5.7
2018-Jun-15 19:00N 29°54' W 093°54'3 5.7
2018-Jun-15 18:30N 29°56' W 093°52'3 5.4
2018-Jun-15 18:00N 29°59' W 093°50'3 5.9
2018-Jun-15 17:30N 29°60' W 093°47'2 4.9
2018-Jun-15 17:00N 30°01' W 093°45'3 5.2
2018-Jun-15 16:29N 30°03' W 093°43'2 5.2
2018-Jun-15 16:00N 30°04' W 093°40'3 5.2
2018-Jun-15 15:28N 30°04' W 093°36'3 5.5
2018-Jun-15 14:59N 30°04' W 093°33'3 5.4
2018-Jun-15 14:30N 30°04' W 093°30'3 5.4
2018-Jun-15 13:59N 30°04' W 093°27'3 5.5
2018-Jun-15 13:30N 30°04' W 093°24'2 4.9
2018-Jun-15 13:00N 30°04' W 093°21'2 4.4
2018-Jun-15 12:30N 30°05' W 093°20'2 4.0
2018-Jun-15 12:00N 30°07' W 093°20'2 4.7
2018-Jun-15 11:30N 30°10' W 093°19'0 0.3
2018-Jun-15 11:00N 30°10' W 093°19'0 0.0
2018-Jun-15 10:30N 30°10' W 093°19'0 0.0
2018-Jun-15 09:59N 30°10' W 093°19'0 0.0
2018-Jun-15 09:30N 30°10' W 093°19'0 0.0
2018-Jun-15 09:00N 30°10' W 093°19'0 0.0
2018-Jun-15 08:30N 30°10' W 093°19'0 0.0
2018-Jun-15 08:00N 30°10' W 093°19'0 0.0
2018-Jun-15 07:30N 30°10' W 093°19'0 0.0
2018-Jun-15 06:59N 30°10' W 093°19'0 0.0
2018-Jun-15 06:30N 30°10' W 093°19'0 0.0
2018-Jun-15 06:00N 30°10' W 093°19'0 0.0
2018-Jun-15 05:30N 30°10' W 093°19'0 0.0
2018-Jun-15 05:00N 30°10' W 093°19'0 0.0
2018-Jun-15 04:30N 30°10' W 093°19'0 0.0
2018-Jun-15 04:00N 30°10' W 093°19'0 0.0
2018-Jun-15 03:30N 30°10' W 093°19'0 0.0
2018-Jun-15 03:00N 30°10' W 093°19'0 0.0
2018-Jun-15 02:30N 30°10' W 093°19'0 0.0
2018-Jun-15 02:00N 30°10' W 093°19'0 0.0
2018-Jun-15 01:30N 30°10' W 093°19'0 0.0
2018-Jun-15 01:00N 30°10' W 093°19'0 0.0
2018-Jun-15 00:30N 30°10' W 093°19'0 0.0
2018-Jun-15 00:00N 30°10' W 093°19'0 0.0
2018-Jun-14 23:30N 30°10' W 093°19'0 0.0
2018-Jun-14 22:58N 30°10' W 093°19'0 0.0
2018-Jun-14 22:30N 30°10' W 093°19'0 0.0
2018-Jun-14 22:00N 30°10' W 093°19'0 0.0
2018-Jun-14 21:30N 30°10' W 093°19'0 0.0
2018-Jun-14 21:00N 30°10' W 093°19'0 0.0
2018-Jun-14 20:30N 30°10' W 093°19'0 0.0
2018-Jun-14 20:00N 30°10' W 093°19'0 0.0
2018-Jun-14 19:30N 30°10' W 093°19'0 0.0
2018-Jun-14 19:00N 30°10' W 093°19'0 0.1
2018-Jun-14 18:30N 30°10' W 093°19'2 3.3
2018-Jun-14 18:00N 30°11' W 093°19'2 4.6
2018-Jun-14 17:30N 30°12' W 093°16'1 1.8
2018-Jun-14 17:00N 30°13' W 093°16'0 0.1
2018-Jun-14 16:30N 30°13' W 093°16'0 0.0
2018-Jun-14 16:00N 30°13' W 093°16'0 0.0
2018-Jun-14 15:30N 30°13' W 093°16'0 0.0
2018-Jun-14 15:00N 30°13' W 093°16'0 0.0
2018-Jun-14 14:30N 30°13' W 093°16'0 0.0
2018-Jun-14 14:00N 30°13' W 093°16'0 0.4
2018-Jun-14 13:30N 30°13' W 093°16'0 0.4
2018-Jun-14 13:00N 30°13' W 093°16'0 0.0
2018-Jun-14 12:30N 30°13' W 093°16'0 0.0
2018-Jun-14 12:00N 30°13' W 093°16'0 0.0
2018-Jun-14 11:30N 30°13' W 093°16'0 0.0
2018-Jun-14 11:00N 30°13' W 093°16'0 0.0
2018-Jun-14 10:30N 30°13' W 093°16'0 0.0
2018-Jun-14 10:00N 30°13' W 093°16'0 0.0
2018-Jun-14 09:30N 30°13' W 093°16'0 0.0
2018-Jun-14 09:00N 30°13' W 093°16'0 0.0
2018-Jun-14 08:30N 30°13' W 093°16'0 0.0
2018-Jun-14 08:00N 30°13' W 093°16'0 0.0
2018-Jun-14 07:30N 30°13' W 093°16'0 0.0
2018-Jun-14 06:53N 30°13' W 093°16'0 0.0
2018-Jun-14 06:23N 30°13' W 093°16'0 0.0
2018-Jun-14 05:58N 30°13' W 093°16'0 0.0
2018-Jun-14 05:30N 30°13' W 093°16'0 0.0
2018-Jun-14 04:59N 30°13' W 093°16'0 0.0
2018-Jun-14 04:29N 30°13' W 093°16'0 0.0
2018-Jun-14 04:00N 30°13' W 093°16'0 0.0
2018-Jun-14 03:27N 30°13' W 093°16'0 0.0
2018-Jun-14 03:00N 30°13' W 093°16'0 0.0
2018-Jun-14 02:17N 30°13' W 093°16'0 0.0
2018-Jun-14 01:47N 30°13' W 093°16'0 0.0
2018-Jun-14 01:26N 30°13' W 093°16'0 0.0
2018-Jun-14 00:57N 30°13' W 093°16'0 0.0
2018-Jun-14 00:29N 30°13' W 093°16'0 0.0
2018-Jun-14 00:00N 30°13' W 093°16'0 0.0
2018-Jun-13 23:30N 30°13' W 093°16'0 0.0
2018-Jun-13 23:00N 30°13' W 093°16'0 0.0
2018-Jun-13 22:30N 30°13' W 093°16'0 0.0
2018-Jun-13 22:00N 30°13' W 093°16'0 0.0
2018-Jun-13 21:30N 30°13' W 093°16'0 0.0
2018-Jun-13 21:00N 30°13' W 093°16'0 0.0
2018-Jun-13 20:29N 30°13' W 093°16'0 0.0
2018-Jun-13 20:00N 30°13' W 093°16'0 0.0
2018-Jun-13 19:29N 30°13' W 093°16'0 0.0
2018-Jun-13 19:00N 30°13' W 093°16'0 0.0
2018-Jun-13 18:30N 30°13' W 093°16'0 0.0
2018-Jun-13 17:59N 30°13' W 093°16'0 0.0
2018-Jun-13 17:30N 30°13' W 093°16'0 0.0
2018-Jun-13 17:00N 30°13' W 093°16'0 0.0
2018-Jun-13 16:29N 30°13' W 093°16'0 0.0
2018-Jun-13 16:00N 30°13' W 093°16'0 0.0
2018-Jun-13 15:30N 30°13' W 093°16'0 0.0
2018-Jun-13 15:00N 30°13' W 093°16'0 0.0
2018-Jun-13 14:30N 30°13' W 093°16'0 0.0
2018-Jun-13 14:00N 30°13' W 093°16'0 0.0
2018-Jun-13 13:30N 30°13' W 093°16'0 0.0
2018-Jun-13 13:00N 30°13' W 093°16'0 0.0
2018-Jun-13 12:30N 30°13' W 093°16'0 0.0
2018-Jun-13 12:00N 30°13' W 093°16'0 0.0
2018-Jun-13 11:30N 30°13' W 093°16'0 0.0
2018-Jun-13 11:00N 30°13' W 093°16'0 0.0
2018-Jun-13 10:30N 30°13' W 093°16'0 0.0
2018-Jun-13 10:00N 30°13' W 093°16'0 0.0
2018-Jun-13 09:30N 30°13' W 093°16'0 0.0
2018-Jun-13 09:00N 30°13' W 093°16'0 0.0
2018-Jun-13 08:30N 30°13' W 093°16'0 0.0
2018-Jun-13 08:00N 30°13' W 093°16'0 0.0
2018-Jun-13 07:30N 30°13' W 093°16'0 0.0
2018-Jun-13 07:00N 30°13' W 093°16'0 0.0
2018-Jun-13 06:30N 30°13' W 093°16'0 0.0
2018-Jun-13 06:00N 30°13' W 093°16'0 0.0
2018-Jun-13 05:30N 30°13' W 093°16'0 0.0
2018-Jun-13 05:00N 30°13' W 093°16'0 0.0
2018-Jun-13 04:30N 30°13' W 093°16'0 0.0
2018-Jun-13 04:00N 30°13' W 093°16'0 0.0
2018-Jun-13 03:30N 30°13' W 093°16'0 0.0
2018-Jun-13 03:00N 30°13' W 093°16'0 0.0
2018-Jun-13 02:30N 30°13' W 093°16'0 0.0
2018-Jun-13 02:00N 30°13' W 093°16'0 0.0
2018-Jun-13 01:30N 30°13' W 093°16'0 0.0
2018-Jun-13 01:00N 30°13' W 093°16'0 0.0
2018-Jun-13 00:30N 30°13' W 093°16'0 0.0
2018-Jun-13 00:00N 30°13' W 093°16'0 0.0
2018-Jun-12 23:30N 30°13' W 093°16'0 0.0
2018-Jun-12 23:00N 30°13' W 093°16'0 0.0
2018-Jun-12 22:30N 30°13' W 093°16'0 0.0
2018-Jun-12 22:00N 30°13' W 093°16'0 0.0
2018-Jun-12 21:30N 30°13' W 093°16'0 0.0
2018-Jun-12 21:00N 30°13' W 093°16'0 0.0
2018-Jun-12 20:30N 30°13' W 093°16'0 0.0
2018-Jun-12 20:00N 30°13' W 093°16'0 0.0
2018-Jun-12 19:30N 30°13' W 093°16'0 0.0
2018-Jun-12 19:00N 30°13' W 093°16'0 0.0
2018-Jun-12 18:30N 30°13' W 093°16'0 0.0
2018-Jun-12 18:00N 30°13' W 093°16'0 0.0
2018-Jun-12 17:30N 30°13' W 093°16'0 0.0
2018-Jun-12 17:00N 30°13' W 093°16'0 0.0
2018-Jun-12 16:30N 30°13' W 093°16'0 0.0
2018-Jun-12 16:00N 30°13' W 093°16'0 0.0
2018-Jun-12 15:30N 30°13' W 093°16'0 0.0
2018-Jun-12 15:00N 30°13' W 093°16'0 0.0
2018-Jun-12 14:30N 30°13' W 093°16'0 0.0
2018-Jun-12 14:00N 30°13' W 093°16'0 0.0
2018-Jun-12 13:30N 30°13' W 093°16'0 0.0
2018-Jun-12 13:00N 30°13' W 093°16'0 0.0
2018-Jun-12 12:30N 30°13' W 093°16'0 0.0
2018-Jun-12 12:00N 30°13' W 093°16'0 0.0
2018-Jun-12 11:30N 30°13' W 093°16'0 0.0
2018-Jun-12 11:00N 30°13' W 093°16'0 0.0
2018-Jun-12 10:30N 30°13' W 093°16'0 0.0
2018-Jun-12 09:59N 30°13' W 093°16'0 0.0
2018-Jun-12 09:30N 30°13' W 093°16'0 0.0
2018-Jun-12 09:00N 30°13' W 093°16'0 0.0
2018-Jun-12 08:30N 30°13' W 093°16'0 0.0
2018-Jun-12 08:00N 30°13' W 093°16'0 0.0
2018-Jun-12 07:30N 30°13' W 093°16'0 0.0
2018-Jun-12 07:00N 30°13' W 093°16'0 0.0
2018-Jun-12 06:30N 30°13' W 093°16'0 0.0
2018-Jun-12 06:00N 30°13' W 093°16'0 0.0
2018-Jun-12 05:30N 30°13' W 093°16'0 0.0
2018-Jun-12 05:00N 30°13' W 093°16'0 0.0
2018-Jun-12 04:30N 30°13' W 093°16'0 0.0
2018-Jun-12 04:00N 30°13' W 093°16'0 0.0
2018-Jun-12 03:30N 30°13' W 093°16'0 0.0
2018-Jun-12 03:00N 30°13' W 093°16'0 0.0
2018-Jun-12 02:30N 30°13' W 093°16'0 0.0
2018-Jun-12 02:00N 30°13' W 093°16'0 0.0
2018-Jun-12 01:30N 30°13' W 093°16'0 0.0
2018-Jun-12 01:00N 30°13' W 093°16'0 0.0
2018-Jun-12 00:30N 30°13' W 093°16'0 0.0
2018-Jun-12 00:00N 30°13' W 093°16'0 0.0
2018-Jun-11 23:30N 30°13' W 093°16'0 0.2
2018-Jun-11 23:00N 30°13' W 093°16'0 0.2
2018-Jun-11 22:29N 30°13' W 093°16'0 0.0
2018-Jun-11 22:00N 30°13' W 093°16'0 0.0
2018-Jun-11 21:30N 30°13' W 093°16'0 0.0
2018-Jun-11 21:00N 30°13' W 093°16'0 0.0
2018-Jun-11 20:30N 30°13' W 093°16'0 0.0
2018-Jun-11 20:00N 30°13' W 093°16'0 0.0
2018-Jun-11 19:30N 30°13' W 093°16'0 0.0
2018-Jun-11 19:00N 30°13' W 093°16'0 0.0
2018-Jun-11 18:30N 30°13' W 093°16'0 0.0
2018-Jun-11 18:00N 30°13' W 093°16'1 1.5
2018-Jun-11 17:30N 30°13' W 093°16'3 6.8
2018-Jun-11 17:00N 30°11' W 093°19'3 6.6
2018-Jun-11 16:30N 30°07' W 093°20'2 3.5
2018-Jun-11 16:00N 30°06' W 093°18'0 0.0
2018-Jun-11 15:30N 30°06' W 093°18'0 0.2
2018-Jun-11 15:00N 30°06' W 093°18'2 3.3
2018-Jun-11 14:30N 30°07' W 093°20'3 6.1
2018-Jun-11 14:00N 30°10' W 093°19'3 5.9
2018-Jun-11 13:30N 30°12' W 093°17'1 2.6
2018-Jun-11 13:00N 30°13' W 093°16'0 0.0
2018-Jun-11 12:30N 30°13' W 093°16'0 0.0
2018-Jun-11 12:00N 30°13' W 093°16'0 0.0
2018-Jun-11 11:30N 30°13' W 093°16'0 0.0
2018-Jun-11 11:00N 30°13' W 093°16'0 0.0
2018-Jun-11 10:30N 30°13' W 093°16'0 0.0
2018-Jun-11 10:00N 30°13' W 093°16'0 0.0
2018-Jun-11 09:30N 30°13' W 093°16'0 0.0
2018-Jun-11 09:00N 30°13' W 093°16'0 0.0
2018-Jun-11 08:30N 30°13' W 093°16'0 0.0
2018-Jun-11 08:00N 30°13' W 093°16'0 0.0
2018-Jun-11 07:30N 30°13' W 093°16'0 0.0
2018-Jun-11 07:00N 30°13' W 093°16'0 0.0
2018-Jun-11 06:30N 30°13' W 093°16'0 0.0
2018-Jun-11 06:00N 30°13' W 093°16'0 0.0
2018-Jun-11 05:30N 30°13' W 093°16'0 0.0
2018-Jun-11 05:00N 30°13' W 093°16'0 0.0
2018-Jun-11 04:30N 30°13' W 093°16'0 0.0
2018-Jun-11 04:00N 30°13' W 093°16'0 0.0
2018-Jun-11 03:30N 30°13' W 093°16'0 0.0
2018-Jun-11 03:00N 30°13' W 093°16'0 0.0
2018-Jun-11 02:30N 30°13' W 093°16'0 0.0
2018-Jun-11 01:59N 30°13' W 093°16'0 0.0
2018-Jun-11 01:30N 30°13' W 093°16'0 0.0
2018-Jun-11 01:00N 30°13' W 093°16'0 0.0
2018-Jun-11 00:30N 30°13' W 093°16'0 0.0
2018-Jun-11 00:00N 30°13' W 093°16'0 0.0
2018-Jun-10 23:30N 30°13' W 093°16'0 0.0
2018-Jun-10 23:00N 30°13' W 093°16'0 0.0
2018-Jun-10 22:30N 30°13' W 093°16'0 0.0
2018-Jun-10 22:00N 30°13' W 093°16'0 0.0
2018-Jun-10 21:30N 30°13' W 093°16'0 0.0
2018-Jun-10 21:00N 30°13' W 093°16'0 0.0
2018-Jun-10 20:30N 30°13' W 093°16'0 0.0
2018-Jun-10 20:00N 30°13' W 093°16'0 0.0
2018-Jun-10 19:28N 30°13' W 093°16'0 0.0
2018-Jun-10 18:59N 30°13' W 093°16'0 0.0
2018-Jun-10 18:30N 30°13' W 093°16'0 0.0
2018-Jun-10 18:00N 30°13' W 093°16'0 0.0
2018-Jun-10 17:30N 30°13' W 093°16'0 0.0
2018-Jun-10 17:00N 30°13' W 093°16'0 0.0
2018-Jun-10 16:30N 30°13' W 093°16'0 0.0
2018-Jun-10 16:00N 30°13' W 093°16'0 0.0
2018-Jun-10 15:30N 30°13' W 093°16'0 0.0
2018-Jun-10 15:00N 30°13' W 093°16'0 0.0
2018-Jun-10 14:00N 30°13' W 093°16'0 0.0
2018-Jun-10 13:30N 30°13' W 093°16'0 0.0
2018-Jun-10 13:00N 30°13' W 093°16'0 0.0
2018-Jun-10 12:30N 30°13' W 093°16'0 0.0
2018-Jun-10 12:00N 30°13' W 093°16'0 0.0
2018-Jun-10 11:30N 30°13' W 093°16'0 0.0
2018-Jun-10 11:00N 30°13' W 093°16'0 0.0
2018-Jun-10 10:29N 30°13' W 093°16'0 0.0
2018-Jun-10 10:00N 30°13' W 093°16'0 0.0
2018-Jun-10 09:30N 30°13' W 093°16'0 0.0
2018-Jun-10 09:00N 30°13' W 093°16'0 0.0
2018-Jun-10 08:30N 30°13' W 093°16'0 0.0
2018-Jun-10 08:00N 30°13' W 093°16'0 0.0
2018-Jun-10 07:30N 30°13' W 093°16'0 0.0
2018-Jun-10 06:59N 30°13' W 093°16'0 0.0
2018-Jun-10 06:29N 30°13' W 093°16'0 0.0
2018-Jun-10 05:59N 30°13' W 093°16'0 0.0
2018-Jun-10 05:29N 30°13' W 093°16'0 0.0
2018-Jun-10 04:58N 30°13' W 093°16'0 0.0
2018-Jun-10 04:20N 30°13' W 093°16'0 0.0
2018-Jun-10 04:00N 30°13' W 093°16'0 0.0
2018-Jun-10 03:30N 30°13' W 093°16'0 0.0
2018-Jun-10 03:00N 30°13' W 093°16'0 0.0
2018-Jun-10 02:29N 30°13' W 093°16'0 0.0
2018-Jun-10 01:54N 30°13' W 093°16'0 0.0
2018-Jun-10 01:30N 30°13' W 093°16'0 0.0
2018-Jun-10 00:59N 30°13' W 093°16'0 0.0
2018-Jun-10 00:30N 30°13' W 093°16'0 0.0
2018-Jun-10 00:00N 30°13' W 093°16'0 0.0
2018-Jun-09 23:30N 30°13' W 093°16'0 0.0
2018-Jun-09 23:00N 30°13' W 093°16'0 0.0
2018-Jun-09 22:30N 30°13' W 093°16'0 0.0
2018-Jun-09 22:00N 30°13' W 093°16'0 0.0
2018-Jun-09 21:30N 30°13' W 093°16'0 0.0
2018-Jun-09 21:00N 30°13' W 093°16'0 0.0
2018-Jun-09 20:30N 30°13' W 093°16'0 0.0
2018-Jun-09 20:00N 30°13' W 093°16'0 0.0
2018-Jun-09 19:30N 30°13' W 093°16'0 0.0
2018-Jun-09 19:00N 30°13' W 093°16'0 0.0
2018-Jun-09 18:30N 30°13' W 093°16'0 0.0
2018-Jun-09 18:00N 30°13' W 093°16'0 0.0
2018-Jun-09 17:30N 30°13' W 093°16'0 0.0
2018-Jun-09 17:00N 30°13' W 093°16'0 0.0
2018-Jun-09 16:29N 30°13' W 093°16'0 0.0
2018-Jun-09 16:00N 30°13' W 093°16'0 0.0
2018-Jun-09 15:00N 30°13' W 093°16'0 0.0
2018-Jun-09 14:28N 30°13' W 093°16'0 0.0
2018-Jun-09 13:59N 30°13' W 093°16'0 0.0
2018-Jun-09 13:28N 30°13' W 093°16'0 0.0
2018-Jun-09 12:59N 30°13' W 093°16'0 0.0
2018-Jun-09 12:29N 30°13' W 093°16'0 0.0
2018-Jun-09 12:00N 30°13' W 093°16'0 0.0
2018-Jun-09 11:30N 30°13' W 093°16'0 0.0
2018-Jun-09 11:00N 30°13' W 093°16'0 0.0
2018-Jun-09 10:30N 30°13' W 093°16'0 0.0
2018-Jun-09 10:00N 30°13' W 093°16'0 0.0
2018-Jun-09 09:30N 30°13' W 093°16'0 0.0
2018-Jun-09 09:00N 30°13' W 093°16'0 0.0
2018-Jun-09 08:28N 30°13' W 093°16'0 0.0
2018-Jun-09 08:00N 30°13' W 093°16'0 0.0
2018-Jun-09 07:30N 30°13' W 093°16'0 0.0
2018-Jun-09 07:00N 30°13' W 093°16'0 0.0
2018-Jun-09 06:30N 30°13' W 093°16'0 0.0
2018-Jun-09 06:00N 30°13' W 093°16'0 0.0
2018-Jun-09 05:30N 30°13' W 093°16'0 0.0
2018-Jun-09 05:00N 30°13' W 093°16'0 0.0
2018-Jun-09 04:30N 30°13' W 093°16'0 0.0
2018-Jun-09 04:00N 30°13' W 093°16'0 0.0
2018-Jun-09 03:30N 30°13' W 093°16'0 0.5
2018-Jun-09 03:00N 30°13' W 093°16'0 0.6
2018-Jun-09 02:30N 30°13' W 093°16'2 3.8
2018-Jun-09 02:00N 30°12' W 093°17'0 0.0
2018-Jun-09 01:30N 30°12' W 093°17'0 0.3
2018-Jun-09 01:00N 30°12' W 093°17'2 3.8
2018-Jun-09 00:30N 30°10' W 093°19'2 5.0
2018-Jun-09 00:00N 30°08' W 093°20'2 4.6
2018-Jun-08 23:30N 30°06' W 093°19'  

Dump ship's entire track history